Time;durP1;ratioP1;P1;durP2;ratioP2;P2;SDS_P1;SDS_P2;PMS_P1;PMS_P2;Temp;Humidity;BMP_temperature;BMP_pressure;BME280_temperature;BME280_humidity;BME280_pressure;Samples;Min_cycle;Max_cycle;Signal;HPM_P1;HPM_P2
2024/04/12 00:01:47;;;;;;;7.55;2.30;;;9.80;99.90;;;;;;5376494;26;20004;-70
2024/04/12 00:04:22;;;;;;;2.58;1.48;;;9.80;99.90;;;;;;5378849;26;20019;-70
2024/04/12 00:06:52;;;;;;;2.47;1.55;;;10.00;99.90;;;;;;5370405;26;20352;-70
2024/04/12 00:09:18;;;;;;;4.65;1.55;;;10.10;99.90;;;;;;5378412;26;20007;-70
2024/04/12 00:11:45;;;;;;;4.35;1.45;;;10.20;99.90;;;;;;5378214;26;20102;-70
2024/04/12 00:14:13;;;;;;;11.05;1.85;;;10.30;99.90;;;;;;5380181;26;20077;-70
2024/04/12 00:16:43;;;;;;;7.18;2.10;;;10.40;99.90;;;;;;5376567;26;20004;-70
2024/04/12 00:19:18;;;;;;;11.10;2.30;;;10.40;99.90;;;;;;5381629;26;20108;-70
2024/04/12 00:21:48;;;;;;;6.85;2.33;;;10.50;99.90;;;;;;5368102;26;20007;-70
2024/04/12 00:24:16;;;;;;;4.40;1.97;;;10.60;99.90;;;;;;5379765;26;20004;-70
2024/04/12 00:26:45;;;;;;;4.45;2.17;;;10.70;99.90;;;;;;5378665;26;20099;-70
2024/04/12 00:29:36;;;;;;;7.13;1.95;;;10.70;99.90;;;;;;5380254;26;20000;-70
2024/04/12 00:32:13;;;;;;;5.30;1.83;;;10.70;99.90;;;;;;5378964;26;19997;-70
2024/04/12 00:34:47;;;;;;;5.18;1.77;;;10.70;99.90;;;;;;5381446;26;20730;-69
2024/04/12 00:37:16;;;;;;;4.28;1.70;;;10.70;99.90;;;;;;5371111;26;20010;-69
2024/04/12 00:39:48;;;;;;;8.70;1.70;;;10.70;99.90;;;;;;5379876;26;20007;-69
2024/04/12 00:42:32;;;;;;;4.38;2.17;;;10.70;99.90;;;;;;5379341;26;20004;-70
2024/04/12 00:44:58;;;;;;;4.05;1.85;;;10.70;99.90;;;;;;5379672;26;20015;-69
2024/04/12 00:47:27;;;;;;;8.63;2.05;;;10.70;99.90;;;;;;5366796;26;20419;-69
2024/04/12 00:49:54;;;;;;;14.85;1.92;;;10.70;99.90;;;;;;5379559;26;20010;-69
2024/04/12 00:52:28;;;;;;;6.25;2.35;;;10.60;99.90;;;;;;5350101;26;20008;-69
2024/04/12 00:55:03;;;;;;;7.53;2.72;;;10.60;99.90;;;;;;5378778;26;20024;-69
2024/04/12 00:57:39;;;;;;;8.60;3.03;;;10.60;99.90;;;;;;5370983;26;20116;-69
2024/04/12 01:00:19;;;;;;;5.53;2.67;;;10.60;99.90;;;;;;5381615;26;20078;-69
2024/04/12 01:02:48;;;;;;;6.68;2.45;;;10.50;99.90;;;;;;5370224;26;20001;-69
2024/04/12 01:05:19;;;;;;;8.32;2.35;;;10.60;99.90;;;;;;5367596;26;20001;-69
2024/04/12 01:07:49;;;;;;;11.48;3.33;;;10.60;99.90;;;;;;5371529;26;20035;-69
2024/04/12 01:10:24;;;;;;;6.47;3.50;;;10.60;99.90;;;;;;5376786;26;20364;-69
2024/04/12 01:12:55;;;;;;;5.60;2.75;;;10.60;99.90;;;;;;5346546;26;19997;-69
2024/04/12 01:15:28;;;;;;;4.30;2.40;;;10.60;99.90;;;;;;5374245;26;20000;-69
2024/04/12 01:17:56;;;;;;;4.55;2.53;;;10.50;99.90;;;;;;5345499;26;20012;-69
2024/04/12 01:20:24;;;;;;;5.07;2.30;;;10.60;99.90;;;;;;5360124;26;20000;-69
2024/04/12 01:22:57;;;;;;;7.90;1.67;;;10.60;99.90;;;;;;5376907;26;20065;-69
2024/04/12 01:25:25;;;;;;;5.45;1.80;;;10.50;99.90;;;;;;5372904;26;20010;-70
2024/04/12 01:27:51;;;;;;;9.35;2.03;;;10.50;99.90;;;;;;5348044;26;20000;-70
2024/04/12 01:30:20;;;;;;;5.38;1.92;;;10.40;99.90;;;;;;5364191;26;20014;-70
2024/04/12 01:32:50;;;;;;;4.43;1.60;;;10.40;99.90;;;;;;5333423;26;20000;-70
2024/04/12 01:35:21;;;;;;;16.95;1.63;;;10.30;99.90;;;;;;5365319;26;20000;-68
2024/04/12 01:37:51;;;;;;;2.38;1.40;;;10.30;99.90;;;;;;5361506;26;20030;-68
2024/04/12 01:40:17;;;;;;;4.30;2.08;;;10.30;99.90;;;;;;5377733;26;20075;-68
2024/04/12 01:42:44;;;;;;;6.82;2.05;;;10.20;99.90;;;;;;5375380;26;19996;-68
2024/04/12 01:45:13;;;;;;;8.45;1.65;;;10.10;99.90;;;;;;5366073;26;20086;-69
2024/04/12 01:47:45;;;;;;;2.78;1.83;;;10.00;99.90;;;;;;5383824;26;20064;-69
2024/04/12 01:50:24;;;;;;;10.30;1.50;;;9.90;99.90;;;;;;5371921;26;20005;-69
2024/04/12 01:52:54;;;;;;;5.55;2.22;;;9.80;99.90;;;;;;5369547;26;20036;-69
2024/04/12 01:55:25;;;;;;;7.13;2.08;;;9.80;99.90;;;;;;5344396;26;20009;-69
2024/04/12 01:57:53;;;;;;;8.98;2.38;;;9.70;99.90;;;;;;5345360;26;20001;-69
2024/04/12 02:00:20;;;;;;;9.05;2.40;;;9.70;99.90;;;;;;5358135;26;19996;-69
2024/04/12 02:02:55;;;;;;;2.67;1.80;;;9.70;99.90;;;;;;5315816;26;19996;-68
2024/04/12 02:05:32;;;;;;;3.33;1.40;;;9.70;99.90;;;;;;5359814;26;20028;-69
2024/04/12 02:07:59;;;;;;;7.32;2.08;;;9.70;99.90;;;;;;5378707;26;19996;-69
2024/04/12 02:10:26;;;;;;;5.90;2.60;;;9.70;99.90;;;;;;5377489;26;20031;-69
2024/04/12 02:12:55;;;;;;;6.35;2.42;;;9.60;99.90;;;;;;5363718;26;20036;-69
2024/04/12 02:15:25;;;;;;;2.65;1.58;;;9.60;99.90;;;;;;5361789;26;20005;-69
2024/04/12 02:17:57;;;;;;;7.05;2.10;;;9.70;99.90;;;;;;5376106;26;20012;-69
2024/04/12 02:20:36;;;;;;;6.60;1.30;;;9.70;99.90;;;;;;5348686;26;20005;-69
2024/04/12 02:23:06;;;;;;;8.05;2.20;;;9.70;99.90;;;;;;5384460;26;20468;-69
2024/04/12 02:25:37;;;;;;;3.03;1.60;;;9.70;99.90;;;;;;5373998;26;20000;-69
2024/04/12 02:28:08;;;;;;;7.40;2.23;;;9.70;99.90;;;;;;5358767;26;19997;-69
2024/04/12 02:30:53;;;;;;;4.95;1.42;;;9.70;99.90;;;;;;5359518;20;20712;-67
2024/04/12 02:33:25;;;;;;;1.88;1.33;;;9.70;99.90;;;;;;5310106;27;20013;-67
2024/04/12 02:36:03;;;;;;;3.75;1.30;;;9.70;99.90;;;;;;5306071;26;20017;-67
2024/04/12 02:38:29;;;;;;;14.43;1.52;;;9.70;99.90;;;;;;5307142;27;20021;-67
2024/04/12 02:40:58;;;;;;;6.60;1.48;;;9.60;99.90;;;;;;5308050;26;20340;-67
2024/04/12 02:43:24;;;;;;;2.83;1.48;;;9.60;99.90;;;;;;5339374;26;20398;-67
2024/04/12 02:46:03;;;;;;;4.05;2.08;;;9.60;99.90;;;;;;5325448;26;20017;-67
2024/04/12 02:48:29;;;;;;;2.53;1.20;;;9.60;99.90;;;;;;5309686;27;20037;-67
2024/04/12 02:51:03;;;;;;;3.78;1.67;;;9.50;99.90;;;;;;5302022;26;20021;-67
2024/04/12 02:53:30;;;;;;;6.68;1.77;;;9.50;99.90;;;;;;5310130;26;19997;-67
2024/04/12 02:56:03;;;;;;;7.18;1.80;;;9.40;99.90;;;;;;5317031;26;20074;-67
2024/04/12 02:58:38;;;;;;;6.70;2.10;;;9.40;99.90;;;;;;5326483;26;20459;-67
2024/04/12 03:01:13;;;;;;;5.07;2.38;;;9.40;99.90;;;;;;5323949;26;20015;-67
2024/04/12 03:03:48;;;;;;;5.00;2.50;;;9.40;99.90;;;;;;5342404;26;20032;-67
2024/04/12 03:06:17;;;;;;;4.63;2.30;;;9.40;99.90;;;;;;5312568;26;20005;-67
2024/04/12 03:08:47;;;;;;;8.40;2.40;;;9.40;99.90;;;;;;5329877;26;20365;-67
2024/04/12 03:11:29;;;;;;;5.22;2.65;;;9.40;99.90;;;;;;5341847;26;20022;-67
2024/04/12 03:14:03;;;;;;;;;;;9.40;99.90;;;;;;5348590;26;20011;-68
2024/04/12 03:16:30;;;;;;;4.90;2.38;;;9.40;99.90;;;;;;5301575;26;19990;-68
2024/04/12 03:18:57;;;;;;;8.65;2.83;;;9.30;99.90;;;;;;5309589;26;20021;-68
2024/04/12 03:21:26;;;;;;;5.30;2.13;;;9.20;99.90;;;;;;5301668;26;19997;-68
2024/04/12 03:23:54;;;;;;;6.32;2.55;;;9.20;99.90;;;;;;5309989;26;20039;-68
2024/04/12 03:26:21;;;;;;;9.15;3.60;;;9.20;99.90;;;;;;5326402;26;20001;-68
2024/04/12 03:28:58;;;;;;;5.82;2.47;;;9.20;99.90;;;;;;5344312;26;20001;-68
2024/04/12 03:31:25;;;;;;;16.98;3.25;;;9.20;99.90;;;;;;5331886;26;20001;-68
2024/04/12 03:33:55;;;;;;;5.07;2.10;;;9.20;99.90;;;;;;5343569;26;20012;-68
2024/04/12 03:36:26;;;;;;;7.78;2.55;;;9.20;99.90;;;;;;5304860;26;20017;-68
2024/04/12 03:42:05;;;;;;;6.95;2.15;;;9.10;99.90;;;;;;5308309;26;20020;-68
2024/04/12 03:44:34;;;;;;;4.32;2.40;;;9.00;99.90;;;;;;5325796;26;20008;-68
2024/04/12 03:47:08;;;;;;;4.82;2.65;;;9.00;99.90;;;;;;5314373;26;20089;-67
2024/04/12 03:49:39;;;;;;;9.75;1.98;;;9.00;99.90;;;;;;5308022;26;20076;-67
2024/04/12 03:52:12;;;;;;;3.80;1.70;;;8.90;99.90;;;;;;5303236;26;20012;-68
2024/04/12 03:54:39;;;;;;;6.05;2.08;;;8.90;99.90;;;;;;5311804;26;19997;-68
2024/04/12 03:57:06;;;;;;;3.08;1.80;;;9.00;99.90;;;;;;5335761;26;20020;-68
2024/04/12 03:59:34;;;;;;;5.50;2.38;;;9.00;99.90;;;;;;5330739;26;20001;-68
2024/04/12 04:02:06;;;;;;;3.47;1.88;;;9.10;99.90;;;;;;5317989;26;20044;-68
2024/04/12 04:04:44;;;;;;;9.68;2.05;;;9.20;99.90;;;;;;5310105;27;20001;-68
2024/04/12 04:07:14;;;;;;;9.55;2.60;;;9.30;99.90;;;;;;5338025;26;20454;-68
2024/04/12 04:09:42;;;;;;;4.60;1.73;;;9.10;99.90;;;;;;5297328;26;20771;-68
2024/04/12 04:12:17;;;;;;;3.47;1.60;;;9.10;99.90;;;;;;5366105;26;20029;-68
2024/04/12 04:14:48;;;;;;;3.70;1.15;;;9.20;99.90;;;;;;5307279;26;20318;-68
2024/04/12 04:17:15;;;;;;;7.57;1.63;;;9.20;99.90;;;;;;5338759;26;20071;-68
2024/04/12 04:19:41;;;;;;;7.07;1.60;;;9.10;99.90;;;;;;5297919;26;20228;-67
2024/04/12 04:24:56;;;;;;;5.45;1.65;;;9.10;99.90;;;;;;5343014;26;19997;-66
2024/04/12 04:27:23;;;;;;;9.85;4.18;;;9.10;99.90;;;;;;5339870;26;19997;-67
2024/04/12 04:29:52;;;;;;;3.95;2.05;;;9.20;99.90;;;;;;5331621;26;20076;-67
2024/04/12 04:32:21;;;;;;;4.43;1.90;;;9.10;99.90;;;;;;5320928;26;20041;-67
2024/04/12 04:34:54;;;;;;;6.20;1.73;;;9.20;99.90;;;;;;5309232;26;20072;-67
2024/04/12 04:37:29;;;;;;;5.60;1.92;;;9.30;99.90;;;;;;5306656;27;19998;-67
2024/04/12 04:39:55;;;;;;;6.25;2.45;;;9.30;99.90;;;;;;5327869;26;20384;-66
2024/04/12 04:42:23;;;;;;;4.30;1.75;;;9.20;99.90;;;;;;5336365;26;19997;-66
2024/04/12 04:44:49;;;;;;;5.28;3.03;;;9.10;99.90;;;;;;5341347;26;19997;-66
2024/04/12 04:47:15;;;;;;;5.82;2.70;;;9.10;99.90;;;;;;5346836;26;20072;-66
2024/04/12 04:49:40;;;;;;;6.00;1.92;;;9.20;99.90;;;;;;5342790;26;20522;-67
2024/04/12 04:52:08;;;;;;;6.35;2.72;;;9.20;99.90;;;;;;5330753;26;20329;-67
2024/04/12 04:54:39;;;;;;;6.55;2.20;;;9.20;99.90;;;;;;5346085;26;19997;-67
2024/04/12 04:57:06;;;;;;;4.85;2.17;;;9.30;99.90;;;;;;5337220;26;20054;-67
2024/04/12 04:59:32;;;;;;;4.30;2.05;;;9.30;99.90;;;;;;5344100;26;20070;-67
2024/04/12 05:02:01;;;;;;;5.80;2.03;;;9.30;99.90;;;;;;5303953;26;20386;-67
2024/04/12 05:04:31;;;;;;;4.10;2.13;;;9.30;99.90;;;;;;5339481;26;20023;-67
2024/04/12 05:06:58;;;;;;;8.57;3.90;;;9.40;99.90;;;;;;5332436;26;19997;-67
2024/04/12 05:09:27;;;;;;;3.63;2.10;;;9.40;99.90;;;;;;5345861;26;20015;-67
2024/04/12 05:11:54;;;;;;;3.83;1.75;;;9.40;99.90;;;;;;5333584;26;20005;-67
2024/04/12 05:14:46;;;;;;;57.13;23.10;;;9.40;99.90;;;;;;5344131;26;20083;-67
2024/04/12 05:17:15;;;;;;;18.48;6.82;;;9.40;99.90;;;;;;5304247;26;20005;-67
2024/04/12 05:19:43;;;;;;;6.45;2.40;;;9.40;99.90;;;;;;5328252;26;20009;-67
2024/04/12 05:22:19;;;;;;;4.85;2.40;;;9.40;99.90;;;;;;5311175;26;20017;-67
2024/04/12 05:24:46;;;;;;;6.25;2.28;;;9.40;99.90;;;;;;5291230;26;20000;-67
2024/04/12 05:27:12;;;;;;;15.63;5.22;;;9.40;99.90;;;;;;5345182;26;20087;-67
2024/04/12 05:29:41;;;;;;;58.13;26.10;;;9.50;99.90;;;;;;5309481;26;20458;-68
2024/04/12 05:32:09;;;;;;;7.45;3.75;;;9.50;99.90;;;;;;5311174;27;19998;-67
2024/04/12 05:34:40;;;;;;;3.70;1.58;;;9.60;99.90;;;;;;5309169;26;20369;-67
2024/04/12 05:37:08;;;;;;;4.80;2.08;;;9.60;99.90;;;;;;5310608;26;20014;-67
2024/04/12 05:39:41;;;;;;;3.28;1.63;;;9.50;99.90;;;;;;5307700;26;20013;-67
2024/04/12 05:42:09;;;;;;;8.38;1.50;;;9.40;99.90;;;;;;5327651;26;20004;-67
2024/04/12 05:44:39;;;;;;;5.93;1.92;;;9.40;99.90;;;;;;5338877;26;20019;-67
2024/04/12 05:47:06;;;;;;;3.75;1.88;;;9.40;99.90;;;;;;5309888;26;19993;-67
2024/04/12 05:49:33;;;;;;;5.35;1.95;;;9.50;99.90;;;;;;5307727;26;19998;-67
2024/04/12 05:52:03;;;;;;;5.18;1.67;;;9.60;99.90;;;;;;5300745;27;20001;-67
2024/04/12 05:54:44;;;;;;;7.57;1.63;;;9.60;99.90;;;;;;5308383;26;20029;-67
2024/04/12 05:57:13;;;;;;;7.53;1.58;;;9.60;99.90;;;;;;5302843;27;20078;-67
2024/04/12 05:59:42;;;;;;;8.65;2.00;;;9.50;99.90;;;;;;5305093;26;20042;-67
2024/04/12 06:02:10;;;;;;;5.60;1.88;;;9.60;99.90;;;;;;5345052;26;20001;-67
2024/04/12 06:04:36;;;;;;;5.45;2.03;;;9.60;99.90;;;;;;5337760;26;20841;-67
2024/04/12 06:07:11;;;;;;;4.60;2.13;;;9.70;99.90;;;;;;5309653;27;20083;-67
2024/04/12 06:09:38;;;;;;;7.95;1.70;;;9.70;99.90;;;;;;5306530;26;20019;-67
2024/04/12 06:12:06;;;;;;;12.43;2.58;;;9.80;99.90;;;;;;5301789;27;20013;-67
2024/04/12 06:14:38;;;;;;;3.95;1.77;;;9.80;99.90;;;;;;5334082;26;20032;-67
2024/04/12 06:17:11;;;;;;;3.33;2.38;;;9.90;99.90;;;;;;5353199;26;20016;-67
2024/04/12 06:19:38;;;;;;;6.43;2.13;;;10.00;99.90;;;;;;5337614;26;20009;-67
2024/04/12 06:22:13;;;;;;;3.65;1.75;;;10.00;99.90;;;;;;5346142;26;20030;-67
2024/04/12 06:24:40;;;;;;;1.92;1.13;;;10.20;99.90;;;;;;5360362;26;20481;-67
2024/04/12 06:27:06;;;;;;;2.10;1.10;;;10.40;99.90;;;;;;5301743;27;20569;-67
2024/04/12 06:29:34;;;;;;;3.97;1.88;;;10.40;99.90;;;;;;5309024;26;20075;-67
2024/04/12 06:32:00;;;;;;;3.65;1.52;;;10.50;99.90;;;;;;5299922;26;20012;-67
2024/04/12 06:34:26;;;;;;;10.35;1.30;;;10.50;99.90;;;;;;5328539;26;20054;-67
2024/04/12 06:37:05;;;;;;;7.00;1.98;;;10.60;99.90;;;;;;5298431;27;20513;-67
2024/04/12 06:39:31;;;;;;;2.75;1.52;;;10.70;99.90;;;;;;5307104;26;20025;-67
2024/04/12 06:42:03;;;;;;;5.68;1.27;;;10.80;99.90;;;;;;5351184;26;20349;-67
2024/04/12 06:44:32;;;;;;;7.78;1.83;;;10.80;99.90;;;;;;5278234;26;20073;-67
2024/04/12 06:46:58;;;;;;;2.63;1.67;;;11.00;99.90;;;;;;5299679;27;20002;-67
2024/04/12 06:49:27;;;;;;;3.13;1.75;;;11.00;99.90;;;;;;5307027;26;20005;-67
2024/04/12 06:52:09;;;;;;;4.90;1.83;;;11.10;99.90;;;;;;5310531;26;20042;-67
2024/04/12 06:54:44;;;;;;;9.77;1.95;;;11.10;99.90;;;;;;5305729;26;20316;-67
2024/04/12 06:57:21;;;;;;;4.53;1.88;;;11.20;99.90;;;;;;5355563;26;20001;-67
2024/04/12 06:59:54;;;;;;;6.25;1.77;;;11.30;99.90;;;;;;5336566;26;20020;-67
2024/04/12 07:02:24;;;;;;;5.60;1.98;;;11.40;99.90;;;;;;5330195;26;20010;-67
2024/04/12 07:04:52;;;;;;;3.20;1.27;;;11.50;99.90;;;;;;5329627;26;20006;-67
2024/04/12 07:07:25;;;;;;;2.65;1.80;;;11.60;99.90;;;;;;5303673;27;20005;-66
2024/04/12 07:09:58;;;;;;;5.80;1.95;;;11.60;99.90;;;;;;5320862;26;20316;-66
2024/04/12 07:12:31;;;;;;;2.90;1.60;;;11.70;99.90;;;;;;5333321;26;20410;-66
2024/04/12 07:14:57;;;;;;;4.78;2.08;;;11.70;99.90;;;;;;5303559;26;20067;-66
2024/04/12 07:17:25;;;;;;;2.47;1.33;;;11.70;99.90;;;;;;5309755;26;20397;-66
2024/04/12 07:19:57;;;;;;;3.20;1.92;;;11.80;99.90;;;;;;5302676;26;20061;-67
2024/04/12 07:22:27;;;;;;;18.08;2.03;;;11.80;99.90;;;;;;5342010;26;20447;-66
2024/04/12 07:24:54;;;;;;;6.75;2.10;;;11.90;99.90;;;;;;5335082;26;20071;-66
2024/04/12 07:27:27;;;;;;;4.13;2.10;;;12.10;99.90;;;;;;5308395;26;20017;-66
2024/04/12 07:29:54;;;;;;;7.97;1.80;;;12.10;99.90;;;;;;5302839;26;20054;-67
2024/04/12 07:32:23;;;;;;;3.75;1.83;;;12.30;99.90;;;;;;5361419;26;20012;-67
2024/04/12 07:34:50;;;;;;;5.63;2.58;;;12.40;99.90;;;;;;5333189;26;20427;-66
2024/04/12 07:37:36;;;;;;;7.45;2.28;;;12.40;99.90;;;;;;5330253;26;20006;-66
2024/04/12 07:40:18;;;;;;;7.53;2.50;;;12.40;99.90;;;;;;5328358;26;20038;-66
2024/04/12 07:42:49;;;;;;;4.70;2.47;;;12.40;99.90;;;;;;5340628;26;20044;-66
2024/04/12 07:45:17;;;;;;;10.37;2.20;;;12.60;99.90;;;;;;5327543;26;20002;-67
2024/04/12 07:47:52;;;;;;;4.22;1.85;;;12.70;99.90;;;;;;5315688;26;20360;-67
2024/04/12 07:50:29;;;;;;;11.38;1.83;;;12.70;99.90;;;;;;5342100;26;20328;-66
2024/04/12 07:56:08;;;;;;;5.30;1.48;;;12.90;99.90;;;;;;5312646;26;19998;-66
2024/04/12 07:58:35;;;;;;;8.63;2.47;;;12.90;99.90;;;;;;5290220;26;20006;-68
2024/04/12 08:01:15;;;;;;;3.78;1.67;;;13.00;99.90;;;;;;5321338;26;20025;-68
2024/04/12 08:03:56;;;;;;;3.58;1.42;;;13.20;99.90;;;;;;5332912;26;20587;-68
2024/04/12 08:06:36;;;;;;;4.03;1.30;;;13.40;99.90;;;;;;5303826;27;19997;-68
2024/04/12 08:09:03;;;;;;;6.40;1.40;;;13.50;99.90;;;;;;5300286;26;20053;-68
2024/04/12 08:11:41;;;;;;;5.22;1.95;;;13.50;99.90;;;;;;5364964;26;20011;-68
2024/04/12 08:14:20;;;;;;;4.53;2.25;;;13.60;99.90;;;;;;5329742;26;20006;-68
2024/04/12 08:16:46;;;;;;;7.70;1.98;;;13.70;99.90;;;;;;5295271;27;20109;-68
2024/04/12 08:19:21;;;;;;;3.47;1.73;;;13.90;99.90;;;;;;5298943;26;20003;-68
2024/04/12 08:21:54;;;;;;;10.52;1.95;;;13.90;99.90;;;;;;5343204;26;20479;-68
2024/04/12 08:24:23;;;;;;;7.93;1.92;;;14.00;99.90;;;;;;5325984;26;20006;-68
2024/04/12 08:26:51;;;;;;;6.43;1.67;;;14.10;99.90;;;;;;5308190;26;20324;-68
2024/04/12 08:29:29;;;;;;;6.78;1.63;;;14.20;99.90;;;;;;5296984;26;20017;-68
2024/04/12 08:34:36;;;;;;;7.82;1.92;;;14.20;99.90;;;;;;5313364;26;20003;-67
2024/04/12 08:37:13;;;;;;;6.47;1.40;;;14.50;99.90;;;;;;5331289;26;20001;-67
2024/04/12 08:39:43;;;;;;;3.55;1.75;;;14.70;99.90;;;;;;5353479;26;19997;-67
2024/04/12 08:42:15;;;;;;;5.88;1.38;;;14.90;99.90;;;;;;5336781;26;20470;-67
2024/04/12 08:44:48;;;;;;;5.35;1.85;;;15.00;99.90;;;;;;5299734;26;20009;-67
2024/04/12 08:50:13;;;;;;;6.43;1.90;;;15.20;99.90;;;;;;5310857;26;20002;-67
2024/04/12 08:52:43;;;;;;;2.88;1.52;;;15.30;99.90;;;;;;5345567;26;19997;-67
2024/04/12 08:55:14;;;;;;;7.93;1.80;;;15.40;99.90;;;;;;5319879;26;20315;-67
2024/04/12 08:57:44;;;;;;;5.47;2.20;;;15.70;99.90;;;;;;5311405;26;20046;-67
2024/04/12 09:00:18;;;;;;;7.32;1.92;;;15.60;99.90;;;;;;5300130;26;20044;-66
2024/04/12 09:02:58;;;;;;;6.15;1.70;;;15.80;98.90;;;;;;5330813;26;20096;-67
2024/04/12 09:05:26;;;;;;;4.20;1.60;;;16.00;98.90;;;;;;5315665;26;20493;-67
2024/04/12 09:08:03;;;;;;;6.93;1.60;;;16.10;98.40;;;;;;5331968;26;19997;-67
2024/04/12 09:10:34;;;;;;;4.30;1.65;;;16.30;98.50;;;;;;5314398;26;20008;-67
2024/04/12 09:13:02;;;;;;;4.93;1.35;;;16.20;98.90;;;;;;5334850;26;20016;-67
2024/04/12 09:15:32;;;;;;;2.85;1.42;;;16.30;98.80;;;;;;5303330;26;20016;-67
2024/04/12 09:18:04;;;;;;;5.05;1.33;;;16.50;98.50;;;;;;5332937;26;20004;-67
2024/04/12 09:20:35;;;;;;;5.00;1.60;;;16.70;99.00;;;;;;5329670;26;20005;-67
2024/04/12 09:23:16;;;;;;;3.80;1.75;;;16.70;98.90;;;;;;5344151;26;20339;-67
2024/04/12 09:25:45;;;;;;;3.75;1.27;;;16.90;98.90;;;;;;5300346;26;20020;-67
2024/04/12 09:28:14;;;;;;;2.70;1.48;;;16.60;98.90;;;;;;5338932;26;20001;-67
2024/04/12 09:33:28;;;;;;;5.22;1.88;;;16.80;98.50;;;;;;5339700;26;20449;-67
2024/04/12 09:36:13;;;;;;;8.65;1.48;;;17.10;98.10;;;;;;5312207;27;20016;-67
2024/04/12 09:38:40;;;;;;;4.20;1.20;;;17.40;98.10;;;;;;5308933;26;20049;-67
2024/04/12 09:41:53;;;;;;;4.57;1.45;;;17.80;97.60;;;;;;5338724;26;20006;-67
2024/04/12 09:44:01;;;;;;;6.53;1.45;;;17.80;97.20;;;;;;5303952;26;20014;-67
2024/04/12 10:39:49;;;;;;;5.47;0.87;;;20.10;96.20;;;;;;5292894;26;20010;-67
2024/04/12 10:42:37;;;;;;;4.65;1.73;;;19.80;95.30;;;;;;5303226;26;20041;-67
2024/04/12 10:45:07;;;;;;;4.15;1.00;;;20.10;95.30;;;;;;5325733;26;20005;-67
2024/04/12 10:47:37;;;;;;;8.32;1.40;;;20.50;94.50;;;;;;5338905;26;20325;-67
2024/04/12 10:50:07;;;;;;;6.35;1.15;;;20.60;95.70;;;;;;5352623;26;20004;-67
2024/04/12 10:52:33;;;;;;;7.75;2.38;;;20.00;94.50;;;;;;5336899;26;20073;-67
2024/04/12 10:55:16;;;;;;;10.25;2.60;;;20.30;95.30;;;;;;5350067;26;20460;-67
2024/04/12 10:57:49;;;;;;;4.85;1.02;;;20.70;96.50;;;;;;5337289;26;20484;-67
2024/04/12 11:00:19;;;;;;;7.75;1.30;;;21.10;94.60;;;;;;5301809;27;20023;-67
2024/04/12 11:02:46;;;;;;;11.00;1.42;;;20.80;94.30;;;;;;5309944;26;20394;-67
2024/04/12 11:07:48;;;;;;;4.20;1.10;;;20.90;93.90;;;;;;5318779;26;19994;-67
2024/04/12 11:10:37;;;;;;;4.63;1.05;;;21.00;95.20;;;;;;5303083;27;20013;-67
2024/04/12 11:13:16;;;;;;;1.92;0.85;;;21.00;94.30;;;;;;5300344;26;20013;-67
2024/04/12 11:32:13;;;;;;;5.35;1.40;;;22.40;93.00;;;;;;5371623;26;20001;-67
2024/04/12 11:34:42;;;;;;;1.80;0.95;;;22.40;92.50;;;;;;5326382;26;20736;-67
2024/04/12 11:37:13;;;;;;;5.70;1.42;;;22.40;92.40;;;;;;5306180;26;20010;-67
2024/04/12 11:39:41;;;;;;;2.72;1.60;;;22.20;93.20;;;;;;5336716;26;19994;-67
2024/04/12 11:42:15;;;;;;;8.85;1.55;;;22.10;92.70;;;;;;5343378;26;20000;-67
2024/04/12 11:44:47;;;;;;;7.05;1.13;;;22.10;92.50;;;;;;5326349;26;20001;-67
2024/04/12 11:47:15;;;;;;;8.35;1.83;;;22.60;92.50;;;;;;5343522;26;20001;-67
2024/04/12 11:49:45;;;;;;;2.33;1.25;;;22.90;92.70;;;;;;5308014;26;20013;-67
2024/04/12 11:52:17;;;;;;;3.78;1.83;;;23.70;91.70;;;;;;5305957;26;20029;-68
2024/04/12 11:54:56;;;;;;;8.15;1.63;;;23.90;91.30;;;;;;5296321;26;20330;-68
2024/04/12 11:57:26;;;;;;;3.72;1.60;;;23.80;90.30;;;;;;5294447;26;20491;-68
2024/04/12 11:59:58;;;;;;;2.15;1.20;;;22.90;92.00;;;;;;5297653;26;20002;-67
2024/04/12 12:02:25;;;;;;;6.28;1.95;;;23.90;91.40;;;;;;5309205;26;20002;-67
2024/04/12 12:04:51;;;;;;;6.28;1.52;;;24.40;91.00;;;;;;5320212;26;20016;-67
2024/04/12 12:07:17;;;;;;;4.53;1.60;;;25.00;90.20;;;;;;5321286;26;20029;-67
2024/04/12 12:09:43;;;;;;;12.13;2.10;;;24.70;91.20;;;;;;5319839;26;20082;-67
2024/04/12 12:12:12;;;;;;;3.35;1.48;;;23.80;91.30;;;;;;5344986;26;20006;-67
2024/04/12 12:14:41;;;;;;;3.83;1.35;;;24.40;90.80;;;;;;5312820;26;20081;-67
2024/04/12 12:17:09;;;;;;;6.07;1.50;;;23.80;91.50;;;;;;5346013;26;20074;-68
2024/04/12 12:19:35;;;;;;;4.30;1.05;;;24.30;91.30;;;;;;5315362;26;20002;-68
2024/04/12 12:22:01;;;;;;;1.38;0.90;;;24.00;91.50;;;;;;5302486;27;20007;-67
2024/04/12 12:24:27;;;;;;;7.18;1.67;;;23.70;92.00;;;;;;5331328;26;20005;-67
2024/04/12 12:26:53;;;;;;;1.42;0.85;;;23.20;92.60;;;;;;5331688;26;20002;-67
2024/04/12 12:29:20;;;;;;;4.88;1.83;;;22.80;93.30;;;;;;5292147;27;19997;-68
2024/04/12 12:31:48;;;;;;;2.78;1.10;;;22.30;94.00;;;;;;5309866;26;20248;-67
2024/04/12 12:34:14;;;;;;;4.70;1.10;;;22.10;94.30;;;;;;5337562;26;20007;-68
2024/04/12 12:36:41;;;;;;;2.05;0.77;;;22.00;94.70;;;;;;5335468;26;20009;-68
2024/04/12 12:39:09;;;;;;;3.80;0.90;;;22.10;95.00;;;;;;5273435;26;20012;-68
2024/04/12 12:41:35;;;;;;;3.78;1.55;;;22.20;95.40;;;;;;5289541;26;20006;-68
2024/04/12 12:44:06;;;;;;;2.53;0.50;;;22.50;95.50;;;;;;5288542;26;19998;-69
2024/04/12 12:46:32;;;;;;;5.55;1.27;;;23.20;94.60;;;;;;5283203;26;20002;-68
2024/04/12 12:48:58;;;;;;;2.75;0.43;;;24.10;93.40;;;;;;5322638;26;20012;-68
2024/04/12 12:51:26;;;;;;;0.95;0.50;;;25.10;92.10;;;;;;5329477;26;20472;-68
2024/04/12 12:53:56;;;;;;;3.30;0.40;;;26.10;91.60;;;;;;5311626;26;20069;-68
2024/04/12 12:56:22;;;;;;;0.95;0.40;;;27.20;90.80;;;;;;5279001;26;20020;-68
2024/04/12 12:58:48;;;;;;;5.72;0.60;;;28.00;90.10;;;;;;5337252;26;20016;-68
2024/04/12 13:01:16;;;;;;;0.65;0.20;;;28.40;88.10;;;;;;5322820;26;20001;-68
2024/04/12 13:03:44;;;;;;;1.83;0.60;;;27.70;88.30;;;;;;5305143;26;20016;-69
2024/04/12 13:06:21;;;;;;;2.65;0.50;;;27.20;88.20;;;;;;5307336;26;19997;-68
2024/04/12 13:08:51;;;;;;;0.80;0.43;;;26.10;90.00;;;;;;5292052;26;20020;-68
2024/04/12 13:11:24;;;;;;;1.27;0.40;;;26.10;90.00;;;;;;5295932;26;20013;-67
2024/04/12 13:13:51;;;;;;;0.68;0.30;;;25.80;90.40;;;;;;5283553;26;20002;-67
2024/04/12 13:16:18;;;;;;;0.35;0.30;;;25.80;90.40;;;;;;5358821;26;20016;-68
2024/04/12 13:18:52;;;;;;;1.10;0.60;;;25.50;90.30;;;;;;5322838;26;19998;-68
2024/04/12 13:21:18;;;;;;;0.52;0.20;;;24.90;90.80;;;;;;5311549;26;20080;-68
2024/04/12 13:23:48;;;;;;;3.28;0.32;;;24.70;91.60;;;;;;5334634;26;20649;-68
2024/04/12 13:26:23;;;;;;;2.00;0.75;;;24.70;91.30;;;;;;5356020;26;20667;-68
2024/04/12 13:28:53;;;;;;;1.60;0.40;;;25.10;91.30;;;;;;5338744;26;20013;-68
2024/04/12 13:31:23;;;;;;;0.17;0.10;;;24.50;91.30;;;;;;5311392;26;20674;-68
2024/04/12 13:33:55;;;;;;;0.43;0.30;;;24.20;91.70;;;;;;5306247;26;20019;-68
2024/04/12 13:36:24;;;;;;;2.03;0.40;;;24.90;91.40;;;;;;5360427;26;20001;-68
2024/04/12 13:38:52;;;;;;;0.70;0.50;;;24.40;91.40;;;;;;5332326;26;20002;-68
2024/04/12 13:41:20;;;;;;;1.70;0.35;;;25.50;91.60;;;;;;5359673;26;19997;-68
2024/04/12 13:43:50;;;;;;;0.68;0.30;;;26.00;90.50;;;;;;5333969;26;20006;-68
2024/04/12 13:51:51;;;;;;;1.20;0.70;;;27.10;87.60;;;;;;5341341;26;20038;-67
2024/04/12 13:54:23;;;;;;;1.38;0.50;;;26.20;89.40;;;;;;5322235;26;20014;-68
2024/04/12 13:56:53;;;;;;;2.75;0.45;;;26.70;88.10;;;;;;5318042;26;20012;-68
2024/04/12 13:59:18;;;;;;;4.60;0.50;;;27.00;87.80;;;;;;5318380;26;20640;-67
2024/04/12 14:01:46;;;;;;;0.65;0.30;;;28.00;87.30;;;;;;5316034;26;20007;-68
2024/04/12 14:04:18;;;;;;;2.53;0.68;;;28.30;85.60;;;;;;5292565;26;20448;-68
2024/04/12 14:06:46;;;;;;;5.82;0.50;;;29.10;82.90;;;;;;5369739;26;19992;-68
2024/04/12 14:09:14;;;;;;;0.57;0.35;;;29.00;83.10;;;;;;5332479;26;20446;-69
2024/04/12 14:11:43;;;;;;;0.88;0.40;;;27.50;84.10;;;;;;5342328;26;20007;-69
2024/04/12 14:14:09;;;;;;;1.88;0.30;;;28.50;83.40;;;;;;5324168;26;19998;-69
2024/04/12 14:16:41;;;;;;;2.40;0.50;;;28.00;82.20;;;;;;5307959;27;20001;-69
2024/04/12 14:19:20;;;;;;;0.25;0.25;;;27.10;84.90;;;;;;5309735;26;20016;-69
2024/04/12 14:21:48;;;;;;;0.90;0.40;;;27.80;83.80;;;;;;5310887;26;19998;-68
2024/04/12 14:27:00;;;;;;;1.25;0.63;;;27.90;83.80;;;;;;5356518;26;20063;-67
2024/04/12 14:29:32;;;;;;;1.17;0.43;;;28.40;85.10;;;;;;5327052;26;20020;-67
2024/04/12 14:32:05;;;;;;;0.85;0.43;;;29.40;82.50;;;;;;5332477;26;20005;-68
2024/04/12 14:34:32;;;;;;;2.33;0.88;;;30.00;79.50;;;;;;5325749;26;20056;-68
2024/04/12 14:37:04;;;;;;;0.52;0.30;;;30.10;78.70;;;;;;5309068;26;20001;-68
2024/04/12 14:39:32;;;;;;;3.67;1.02;;;31.10;77.30;;;;;;5321552;26;20041;-68
2024/04/12 14:42:05;;;;;;;2.70;0.85;;;31.40;76.80;;;;;;5317105;26;20016;-68
2024/04/12 14:44:35;;;;;;;1.33;0.60;;;30.90;74.60;;;;;;5293457;26;20010;-67
2024/04/12 14:47:02;;;;;;;3.65;1.00;;;31.40;75.10;;;;;;5309467;26;20002;-67